Time;durP1;ratioP1;P1;durP2;ratioP2;P2;SDS_P1;SDS_P2;PMS_P1;PMS_P2;Temp;Humidity;BMP_temperature;BMP_pressure;BME280_temperature;BME280_humidity;BME280_pressure;Samples;Min_cycle;Max_cycle;Signal;HPM_P1;HPM_P2
2022/10/26 00:01:09;;;;;;;13.57;4.25;;;;;;;11.79;100.00;101252.31;5185964;28;20030;-74
2022/10/26 00:03:41;;;;;;;12.65;4.13;;;;;;;11.76;100.00;101243.75;5186025;28;20028;-74
2022/10/26 00:06:13;;;;;;;9.73;3.80;;;;;;;11.71;100.00;101241.56;5185453;28;20496;-74
2022/10/26 00:08:45;;;;;;;10.55;4.55;;;;;;;11.68;100.00;101245.41;5184594;28;20022;-74
2022/10/26 00:11:16;;;;;;;14.77;4.15;;;;;;;11.66;100.00;101242.06;5186096;28;20366;-75
2022/10/26 00:13:47;;;;;;;9.90;4.63;;;;;;;11.64;100.00;101233.28;5185598;28;20034;-74
2022/10/26 00:16:25;;;;;;;10.35;3.70;;;;;;;11.61;100.00;101233.63;5185219;28;20444;-74
2022/10/26 00:18:55;;;;;;;13.43;4.15;;;;;;;11.60;100.00;101223.91;5184882;28;20029;-74
2022/10/26 00:21:26;;;;;;;11.43;4.40;;;;;;;11.60;100.00;101223.91;5184999;28;20018;-74
2022/10/26 00:23:58;;;;;;;10.55;4.07;;;;;;;11.59;100.00;101221.34;5184957;28;20033;-74
2022/10/26 00:26:29;;;;;;;9.27;4.38;;;;;;;11.60;100.00;101220.38;5204934;28;20026;-74
2022/10/26 00:28:59;;;;;;;13.73;4.32;;;;;;;11.59;100.00;101215.97;5205009;28;20032;-75
2022/10/26 00:31:30;;;;;;;13.50;4.15;;;;;;;11.60;100.00;101215.84;5201172;28;20101;-75
2022/10/26 00:34:00;;;;;;;10.93;3.63;;;;;;;11.65;100.00;101215.34;5205570;28;20040;-75
2022/10/26 00:36:31;;;;;;;11.27;3.70;;;;;;;11.67;100.00;101214.16;5204712;28;20029;-75
2022/10/26 00:39:02;;;;;;;13.00;3.75;;;;;;;11.72;100.00;101218.22;5204688;28;20021;-75
2022/10/26 00:41:34;;;;;;;14.05;4.10;;;;;;;11.71;100.00;101209.31;5205086;28;20083;-75
2022/10/26 00:44:41;;;;;;;7.25;4.28;;;;;;;11.70;100.00;101214.81;5204793;28;20025;-75
2022/10/26 00:47:32;;;;;;;7.78;3.90;;;;;;;11.68;100.00;101210.47;5204444;28;20285;-74
2022/10/26 00:50:10;;;;;;;13.55;4.50;;;;;;;11.65;100.00;101208.13;5204995;28;20281;-75
2022/10/26 00:52:41;;;;;;;8.23;3.58;;;;;;;11.64;100.00;101209.09;5204869;28;20022;-75
2022/10/26 00:55:12;;;;;;;12.10;4.25;;;;;;;11.62;100.00;101210.28;5204990;28;20503;-74
2022/10/26 00:57:42;;;;;;;7.75;3.65;;;;;;;11.64;100.00;101211.78;5204313;28;20053;-75
2022/10/26 01:00:13;;;;;;;8.80;3.80;;;;;;;11.65;100.00;101212.66;5204752;28;20025;-74
2022/10/26 01:02:45;;;;;;;8.77;3.75;;;;;;;11.63;100.00;101207.44;5204675;28;20033;-74
2022/10/26 01:05:18;;;;;;;13.45;4.35;;;;;;;11.62;100.00;101199.53;5204729;28;20032;-74
2022/10/26 01:07:50;;;;;;;15.30;4.28;;;;;;;11.60;100.00;101191.66;5204154;28;20021;-75
2022/10/26 01:10:21;;;;;;;12.25;3.78;;;;;;;11.59;100.00;101189.94;5205177;28;20027;-74
2022/10/26 01:12:54;;;;;;;11.77;4.32;;;;;;;11.58;100.00;101190.13;5205627;28;20257;-74
2022/10/26 01:15:51;;;;;;;16.30;4.57;;;;;;;11.56;100.00;101195.66;5204990;28;20048;-74
2022/10/26 01:18:43;;;;;;;9.88;4.15;;;;;;;11.57;100.00;101191.97;5203642;28;20122;-74
2022/10/26 01:21:47;;;;;;;13.20;4.20;;;;;;;11.58;100.00;101190.94;5204662;28;20029;-74
2022/10/26 01:24:24;;;;;;;15.77;4.45;;;;;;;11.59;100.00;101189.09;5196775;28;20103;-74
2022/10/26 01:27:19;;;;;;;8.90;3.90;;;;;;;11.58;100.00;101182.06;5201418;28;20057;-74
2022/10/26 01:30:08;;;;;;;14.00;3.73;;;;;;;11.57;100.00;101183.06;5204404;28;20534;-74
2022/10/26 01:32:54;;;;;;;10.38;3.17;;;;;;;11.56;100.00;101184.09;5200869;28;20029;-74
2022/10/26 01:35:40;;;;;;;10.25;3.58;;;;;;;11.52;100.00;101175.50;5204342;28;20040;-75
2022/10/26 01:38:15;;;;;;;11.55;3.72;;;;;;;11.49;100.00;101172.28;5202919;28;20029;-74
2022/10/26 01:40:59;;;;;;;13.27;3.88;;;;;;;11.45;100.00;101179.03;5204428;28;20025;-73
2022/10/26 01:43:35;;;;;;;11.65;3.65;;;;;;;11.41;100.00;101170.44;5191476;28;20436;-74
2022/10/26 01:46:08;;;;;;;7.28;3.25;;;;;;;11.41;100.00;101170.44;5202803;28;20052;-74
2022/10/26 01:48:41;;;;;;;10.80;3.63;;;;;;;11.40;100.00;101168.75;5203070;28;20552;-74
2022/10/26 01:51:13;;;;;;;6.10;3.15;;;;;;;11.37;100.00;101169.91;5203949;28;20032;-74
2022/10/26 01:53:48;;;;;;;9.00;3.17;;;;;;;11.38;100.00;101163.53;5202911;28;20484;-74
2022/10/26 01:56:26;;;;;;;13.20;4.07;;;;;;;11.39;100.00;101162.53;5203638;28;20025;-74
2022/10/26 01:59:09;;;;;;;8.60;4.10;;;;;;;11.41;100.00;101165.06;5203326;28;20021;-74
2022/10/26 02:01:58;;;;;;;8.85;3.88;;;;;;;11.43;100.00;101157.66;5203491;28;20037;-74
2022/10/26 02:04:39;;;;;;;7.80;4.00;;;;;;;11.40;100.00;101158.84;5203811;28;20133;-74
2022/10/26 02:07:14;;;;;;;8.18;3.40;;;;;;;11.40;100.00;101158.03;5202818;28;20045;-74
2022/10/26 02:10:15;;;;;;;7.85;3.40;;;;;;;11.37;100.00;101152.97;5203120;28;20021;-75
2022/10/26 02:13:15;;;;;;;11.32;3.63;;;;;;;11.37;100.00;101159.19;5203678;28;20060;-75
2022/10/26 02:15:54;;;;;;;8.50;3.60;;;;;;;11.36;100.00;101153.97;5203024;28;20100;-74
2022/10/26 02:18:42;;;;;;;12.13;3.63;;;;;;;11.36;100.00;101151.28;5202268;28;20036;-74
2022/10/26 02:21:20;;;;;;;7.88;3.00;;;;;;;11.34;100.00;101151.44;5203324;28;20032;-75
2022/10/26 02:23:53;;;;;;;15.18;4.00;;;;;;;11.34;100.00;101151.44;5203165;28;20105;-75
2022/10/26 02:26:29;;;;;;;6.47;3.70;;;;;;;11.34;100.00;101148.75;5203095;28;20381;-75
2022/10/26 02:29:03;;;;;;;7.63;3.75;;;;;;;11.34;100.00;101155.97;5203061;28;20013;-74
2022/10/26 02:31:36;;;;;;;14.07;4.47;;;;;;;11.35;100.00;101154.97;5199927;28;20032;-74
2022/10/26 02:34:11;;;;;;;7.65;3.60;;;;;;;11.34;100.00;101146.06;5203513;28;20379;-75
2022/10/26 02:36:46;;;;;;;11.73;3.95;;;;;;;11.35;100.00;101145.06;5202323;28;20536;-73
2022/10/26 02:39:18;;;;;;;14.18;4.32;;;;;;;11.36;100.00;101143.22;5202913;28;20025;-74
2022/10/26 02:41:50;;;;;;;13.15;3.20;;;;;;;11.35;100.00;101139.72;5202902;28;20017;-74
2022/10/26 02:44:28;;;;;;;8.80;3.67;;;;;;;11.36;100.00;101137.84;5203581;28;20025;-75
2022/10/26 02:46:59;;;;;;;9.70;3.97;;;;;;;11.38;100.00;101133.16;5201986;28;20447;-75
2022/10/26 02:49:29;;;;;;;11.93;3.90;;;;;;;11.41;100.00;101130.16;5203043;28;20021;-75
2022/10/26 02:52:20;;;;;;;12.75;3.45;;;;;;;11.44;100.00;101129.78;5203219;28;20029;-74
2022/10/26 02:55:01;;;;;;;6.43;2.92;;;;;;;11.48;100.00;101131.16;5190313;28;20047;-75
2022/10/26 02:57:39;;;;;;;8.20;3.05;;;;;;;11.54;100.00;101132.34;5202082;28;20033;-74
2022/10/26 03:00:13;;;;;;;11.13;3.20;;;;;;;11.58;100.00;101137.22;5203127;28;20503;-74
2022/10/26 03:02:50;;;;;;;7.72;3.13;;;;;;;11.62;100.00;101141.25;5202720;28;20022;-75
2022/10/26 03:05:31;;;;;;;9.20;3.13;;;;;;;11.65;100.00;101129.34;5203358;28;20102;-75
2022/10/26 03:08:02;;;;;;;8.98;3.35;;;;;;;11.70;100.00;101132.38;5201901;28;20028;-75
2022/10/26 03:10:44;;;;;;;13.55;3.47;;;;;;;11.70;100.00;101132.38;5202911;28;20030;-74
2022/10/26 03:13:14;;;;;;;7.35;3.08;;;;;;;11.72;100.00;101132.19;5203471;28;20465;-75
2022/10/26 03:15:45;;;;;;;8.85;3.53;;;;;;;11.75;100.00;101131.88;5202942;28;20025;-75
2022/10/26 03:18:15;;;;;;;7.75;2.90;;;;;;;11.78;100.00;101131.53;5201958;28;20395;-75
2022/10/26 03:20:46;;;;;;;8.65;2.78;;;;;;;11.81;100.00;101128.53;5202747;28;20029;-75
2022/10/26 03:23:16;;;;;;;9.75;2.85;;;;;;;11.84;100.00;101133.56;5202859;28;20072;-75
2022/10/26 03:25:47;;;;;;;10.20;3.40;;;;;;;11.87;100.00;101133.25;5202705;28;20017;-74
2022/10/26 03:28:17;;;;;;;8.52;3.40;;;;;;;11.89;100.00;101133.91;5202139;28;20044;-75
2022/10/26 03:30:48;;;;;;;6.50;2.95;;;;;;;11.89;100.00;101142.81;5205429;28;20029;-75
2022/10/26 03:33:18;;;;;;;10.63;2.70;;;;;;;11.91;100.00;101142.66;5203224;28;20079;-75
2022/10/26 03:35:55;;;;;;;7.95;2.40;;;;;;;11.92;100.00;101147.03;5207000;28;20021;-75
2022/10/26 03:38:26;;;;;;;12.07;3.10;;;;;;;11.93;100.00;101144.16;5205799;28;20407;-75
2022/10/26 03:40:56;;;;;;;10.43;2.50;;;;;;;11.95;100.00;101140.47;5206401;28;20037;-75
2022/10/26 03:43:27;;;;;;;12.95;3.15;;;;;;;11.95;100.00;101141.31;5206544;28;20060;-74
2022/10/26 03:45:57;;;;;;;7.00;2.92;;;;;;;11.93;100.00;101136.09;5206119;28;20041;-74
2022/10/26 03:48:28;;;;;;;8.20;3.33;;;;;;;11.97;100.00;101138.47;5206272;28;20028;-74
2022/10/26 03:50:59;;;;;;;9.07;3.20;;;;;;;11.99;100.00;101139.97;5206939;28;20049;-75
2022/10/26 03:53:30;;;;;;;9.52;3.33;;;;;;;12.02;100.00;101130.72;5206137;28;20028;-74
2022/10/26 03:56:00;;;;;;;8.27;3.00;;;;;;;12.04;100.00;101124.16;5205945;28;20068;-73
2022/10/26 03:58:31;;;;;;;7.75;2.78;;;;;;;12.06;100.00;101130.22;5205873;28;20034;-75
2022/10/26 04:01:01;;;;;;;8.30;2.97;;;;;;;12.07;100.00;101129.22;5206450;28;20079;-75
2022/10/26 04:03:31;;;;;;;8.45;2.58;;;;;;;12.09;100.00;101126.34;5205986;28;20029;-75
2022/10/26 04:06:03;;;;;;;10.77;2.70;;;;;;;12.10;100.00;101125.34;5205718;28;20221;-74
2022/10/26 04:08:33;;;;;;;5.78;2.03;;;;;;;12.10;100.00;101128.03;5205161;28;20026;-75
2022/10/26 04:11:04;;;;;;;6.07;2.75;;;;;;;12.11;100.00;101130.56;5206098;28;20404;-74
2022/10/26 04:13:34;;;;;;;10.73;2.53;;;;;;;12.13;100.00;101146.50;5206135;28;20025;-74
2022/10/26 04:16:05;;;;;;;8.68;2.67;;;;;;;12.13;100.00;101139.28;5205968;28;20491;-75
2022/10/26 04:18:35;;;;;;;10.40;3.13;;;;;;;12.13;100.00;101150.03;5204722;28;20120;-74
2022/10/26 04:21:06;;;;;;;13.98;3.28;;;;;;;12.15;100.00;101148.03;5206044;28;20029;-74
2022/10/26 04:23:36;;;;;;;13.27;2.95;;;;;;;12.18;100.00;101145.00;5205628;28;20028;-74
2022/10/26 04:26:07;;;;;;;10.10;2.45;;;;;;;12.18;100.00;101136.94;5205687;28;20049;-74
2022/10/26 04:28:37;;;;;;;8.90;2.72;;;;;;;12.20;100.00;101142.16;5205193;28;20399;-74
2022/10/26 04:31:08;;;;;;;7.40;2.90;;;;;;;12.22;100.00;101147.34;5202675;28;20388;-74
2022/10/26 04:33:38;;;;;;;6.68;2.88;;;;;;;12.23;100.00;101143.66;5203414;28;20475;-74
2022/10/26 04:36:10;;;;;;;9.90;3.30;;;;;;;12.24;100.00;101139.94;5205572;28;20388;-75
2022/10/26 04:38:40;;;;;;;9.82;3.08;;;;;;;12.26;100.00;101148.69;5204919;28;20021;-75
2022/10/26 04:41:11;;;;;;;8.15;2.97;;;;;;;12.26;100.00;101146.00;5203978;28;20022;-75
2022/10/26 04:43:41;;;;;;;12.65;2.95;;;;;;;12.28;100.00;101146.66;5205335;28;20057;-74
2022/10/26 04:46:13;;;;;;;7.72;2.72;;;;;;;12.29;100.00;101151.88;5205476;28;20503;-72
2022/10/26 04:48:43;;;;;;;7.82;2.88;;;;;;;12.26;100.00;101160.31;5204709;28;20472;-73
2022/10/26 04:51:14;;;;;;;8.02;2.80;;;;;;;12.27;100.00;101153.06;5205163;28;20036;-72
2022/10/26 04:53:44;;;;;;;8.38;2.67;;;;;;;12.28;100.00;101149.38;5197952;28;20030;-72
2022/10/26 04:56:14;;;;;;;10.13;2.80;;;;;;;12.27;100.00;101148.53;5197464;28;20400;-72
2022/10/26 04:58:45;;;;;;;9.68;3.35;;;;;;;12.29;100.00;101151.03;5203631;28;20460;-73
2022/10/26 05:01:15;;;;;;;8.25;2.80;;;;;;;12.30;100.00;101163.47;5203846;28;20419;-72
2022/10/26 05:03:50;;;;;;;12.45;2.58;;;;;;;12.29;100.00;101159.09;5203571;28;20053;-73
2022/10/26 05:06:21;;;;;;;8.65;2.30;;;;;;;12.28;100.00;101157.44;5203353;28;20493;-72
2022/10/26 05:08:51;;;;;;;7.03;2.47;;;;;;;12.28;100.00;101160.13;5202725;28;20022;-72
2022/10/26 05:11:22;;;;;;;7.35;2.50;;;;;;;12.30;100.00;101164.34;5203843;28;20053;-73
2022/10/26 05:13:52;;;;;;;13.63;2.40;;;;;;;12.34;100.00;101160.28;5203770;28;20032;-72
2022/10/26 05:16:23;;;;;;;6.28;2.58;;;;;;;12.36;100.00;101165.50;5203620;28;20021;-72
2022/10/26 05:18:53;;;;;;;9.20;2.90;;;;;;;12.42;100.00;101170.19;5204017;28;20025;-72
2022/10/26 05:21:23;;;;;;;7.18;2.47;;;;;;;12.42;100.00;101171.03;5203676;28;20337;-72
2022/10/26 05:23:54;;;;;;;4.38;2.08;;;;;;;12.39;100.00;101170.53;5203595;28;20450;-73
2022/10/26 05:26:25;;;;;;;11.45;3.00;;;;;;;12.37;100.00;101173.41;5202806;28;20460;-72
2022/10/26 05:28:55;;;;;;;6.82;3.00;;;;;;;12.34;100.00;101173.72;5202474;28;20025;-72
2022/10/26 05:31:26;;;;;;;14.38;3.58;;;;;;;12.34;100.00;101175.56;5198943;28;20068;-73
2022/10/26 05:33:57;;;;;;;11.52;3.45;;;;;;;12.42;100.00;101180.97;5202806;28;20021;-72
2022/10/26 05:36:27;;;;;;;11.77;3.65;;;;;;;12.48;100.00;101172.19;5202446;28;20048;-72
2022/10/26 05:38:58;;;;;;;8.18;2.58;;;;;;;12.56;100.00;101177.59;5202214;28;20642;-72
2022/10/26 05:41:28;;;;;;;8.95;2.58;;;;;;;12.62;100.00;101174.19;5202466;28;20100;-72
2022/10/26 05:43:59;;;;;;;8.93;2.35;;;;;;;12.69;100.00;101166.25;5202407;28;20491;-72
2022/10/26 05:46:29;;;;;;;10.13;1.88;;;;;;;12.78;100.00;101164.41;5202485;28;20497;-73
2022/10/26 05:49:00;;;;;;;7.03;2.03;;;;;;;12.84;100.00;101169.09;5202207;28;20237;-72
2022/10/26 05:51:33;;;;;;;5.28;1.70;;;;;;;12.96;100.00;101167.72;5201943;28;20519;-73
2022/10/26 05:54:03;;;;;;;6.05;2.08;;;;;;;13.07;100.00;101161.94;5201792;28;20025;-72
2022/10/26 05:56:36;;;;;;;6.07;1.70;;;;;;;13.20;100.00;101159.53;5201733;28;20032;-72
2022/10/26 05:59:12;;;;;;;5.75;2.20;;;;;;;13.40;100.00;101151.00;5201484;28;20086;-72
2022/10/26 06:02:18;;;;;;;9.18;1.92;;;;;;;13.44;100.00;101150.50;5202816;28;20036;-72
2022/10/26 06:04:49;;;;;;;4.47;1.63;;;;;;;13.46;100.00;101155.72;5189266;28;20099;-73
2022/10/26 06:07:20;;;;;;;4.75;1.95;;;;;;;13.44;100.00;101157.72;5202226;28;20360;-73
2022/10/26 06:09:50;;;;;;;8.75;2.35;;;;;;;13.47;100.00;101168.19;5202365;28;20045;-73
2022/10/26 06:12:21;;;;;;;6.03;2.00;;;;;;;13.55;100.00;101173.50;5202297;28;20480;-73
2022/10/26 06:14:52;;;;;;;7.93;2.17;;;;;;;13.61;100.00;101178.19;5201422;28;20132;-72
2022/10/26 06:17:29;;;;;;;8.68;2.10;;;;;;;13.70;100.00;101187.91;5201874;28;20701;-73
2022/10/26 06:20:18;;;;;;;7.55;2.05;;;;;;;13.77;100.00;101193.44;5206757;28;20020;-73
2022/10/26 06:23:03;;;;;;;5.75;2.03;;;;;;;13.76;100.00;101193.63;5226983;28;20037;-74
2022/10/26 06:25:55;;;;;;;6.03;2.23;;;;;;;13.79;100.00;101195.94;5202382;28;20098;-73
2022/10/26 06:28:37;;;;;;;6.25;1.83;;;;;;;13.82;100.00;101188.34;5201074;28;20017;-73
2022/10/26 06:31:08;;;;;;;4.25;2.05;;;;;;;13.88;100.00;101195.72;5199224;28;20113;-73
2022/10/26 06:33:39;;;;;;;5.13;1.63;;;;;;;13.87;100.00;101190.50;5201291;28;20104;-73
2022/10/26 06:36:15;;;;;;;4.65;2.30;;;;;;;13.82;100.00;101190.19;5201300;28;20037;-72
2022/10/26 06:38:49;;;;;;;4.22;2.13;;;;;;;13.79;100.00;101190.53;5200778;28;20440;-74
2022/10/26 06:41:21;;;;;;;7.10;2.20;;;;;;;13.77;100.00;101198.00;5201494;28;20053;-74
2022/10/26 06:43:52;;;;;;;5.38;2.00;;;;;;;13.72;100.00;101202.06;5202187;28;20021;-73
2022/10/26 06:46:38;;;;;;;8.13;2.55;;;;;;;13.74;100.00;101200.00;5200822;28;20026;-72
2022/10/26 06:49:26;;;;;;;9.93;1.98;;;;;;;13.78;100.00;101202.34;5200951;28;20026;-72
2022/10/26 06:52:06;;;;;;;3.95;1.80;;;;;;;13.81;100.00;101202.00;5201855;28;20021;-73
2022/10/26 06:54:49;;;;;;;7.82;2.33;;;;;;;13.87;100.00;101220.16;5201815;28;20065;-73
2022/10/26 06:57:21;;;;;;;9.93;4.10;;;;;;;13.92;100.00;101253.66;5200599;28;20021;-73
2022/10/26 06:59:55;;;;;;;8.70;3.17;;;;;;;13.96;100.00;101248.78;5200961;28;20018;-73
2022/10/26 07:02:26;;;;;;;6.40;2.03;;;;;;;14.04;100.00;101250.56;5200793;28;20099;-73
2022/10/26 07:04:56;;;;;;;5.05;2.13;;;;;;;14.12;100.00;101253.22;5205127;28;20476;-73
2022/10/26 07:07:29;;;;;;;6.63;2.13;;;;;;;14.25;100.00;101232.69;5204180;28;20025;-73
2022/10/26 07:10:00;;;;;;;12.43;2.30;;;;;;;14.36;100.00;101230.59;5204221;28;20380;-73
2022/10/26 07:12:31;;;;;;;6.47;1.85;;;;;;;14.46;100.00;101241.97;5205247;28;20029;-73
2022/10/26 07:15:02;;;;;;;6.50;2.25;;;;;;;14.58;100.00;101239.72;5205095;28;20025;-73
2022/10/26 07:17:47;;;;;;;6.47;2.08;;;;;;;14.65;100.00;101257.69;5204762;28;20068;-73
2022/10/26 07:20:20;;;;;;;6.22;1.80;;;;;;;14.68;100.00;101251.91;5205204;28;20384;-73
2022/10/26 07:22:54;;;;;;;5.65;1.98;;;;;;;14.68;100.00;101262.72;5205346;28;20519;-73
2022/10/26 07:25:25;;;;;;;8.88;2.15;;;;;;;14.65;100.00;101263.06;5204926;28;20365;-72
2022/10/26 07:27:58;;;;;;;6.97;1.75;;;;;;;14.68;100.00;101262.72;5204937;28;20032;-73
2022/10/26 07:30:30;;;;;;;6.00;2.25;;;;;;;14.82;100.00;101269.19;5191921;28;20436;-74
2022/10/26 07:33:06;;;;;;;6.38;2.90;;;;;;;15.03;100.00;101269.28;5189193;28;20026;-73
2022/10/26 07:35:36;;;;;;;10.32;2.97;;;;;;;15.32;100.00;101280.31;5193828;28;20025;-73
2022/10/26 07:38:07;;;;;;;8.52;2.25;;;;;;;15.51;100.00;101277.00;5189066;28;20408;-74
2022/10/26 07:40:38;;;;;;;9.07;2.22;;;;;;;15.71;100.00;101280.00;5184346;28;20022;-73
2022/10/26 07:43:08;;;;;;;9.20;2.10;;;;;;;16.18;100.00;101281.38;5185481;28;20080;-73
2022/10/26 07:45:39;;;;;;;7.18;2.03;;;;;;;16.55;100.00;101288.41;5184971;28;20049;-74
2022/10/26 07:48:09;;;;;;;6.55;2.10;;;;;;;16.84;100.00;101282.00;5184968;28;20072;-74
2022/10/26 07:50:40;;;;;;;8.65;2.20;;;;;;;17.33;100.00;101281.91;5197708;28;20022;-74
2022/10/26 07:53:10;;;;;;;6.85;2.00;;;;;;;17.51;100.00;101297.63;5184824;28;20047;-73
2022/10/26 07:55:41;;;;;;;12.63;2.30;;;;;;;17.47;100.00;101290.09;5185568;28;20065;-74
2022/10/26 07:58:12;;;;;;;8.43;2.15;;;;;;;17.69;100.00;101299.00;5183895;28;20072;-73
2022/10/26 08:00:42;;;;;;;6.60;2.20;;;;;;;17.98;100.00;101304.16;5185217;28;20022;-74
2022/10/26 08:03:12;;;;;;;8.43;2.20;;;;;;;18.02;100.00;101301.84;5184729;28;20484;-74
2022/10/26 08:05:49;;;;;;;4.03;1.63;;;;;;;18.24;100.00;101303.38;5184855;28;20032;-75
2022/10/26 08:08:20;;;;;;;10.00;2.28;;;;;;;18.56;100.00;101311.78;5184202;28;20026;-73
2022/10/26 08:10:51;;;;;;;5.57;1.95;;;;;;;19.05;100.00;101297.81;5185314;28;20022;-74
2022/10/26 08:13:22;;;;;;;10.32;2.50;;;;;;;18.95;100.00;101299.28;5184657;28;20456;-73
2022/10/26 08:15:57;;;;;;;5.93;2.08;;;;;;;19.07;100.00;101300.28;5195802;28;20121;-74
2022/10/26 08:18:27;;;;;;;7.00;2.20;;;;;;;18.95;100.00;101297.41;5183935;28;20524;-74
2022/10/26 08:21:06;;;;;;;9.07;2.45;;;;;;;18.72;100.00;101313.28;5184789;28;20049;-74
2022/10/26 08:23:36;;;;;;;10.38;2.50;;;;;;;18.97;100.00;101321.66;5184692;28;20076;-74
2022/10/26 08:26:10;;;;;;;6.90;2.17;;;;;;;19.17;100.00;101324.34;5200954;28;20384;-74
2022/10/26 08:28:41;;;;;;;6.80;2.05;;;;;;;18.97;100.00;101327.06;5202630;28;20074;-74
2022/10/26 08:31:12;;;;;;;8.05;2.50;;;;;;;19.15;100.00;101330.84;5200421;28;20022;-74
2022/10/26 08:33:42;;;;;;;5.82;2.08;;;;;;;19.10;100.00;101335.25;5203598;28;20025;-74
2022/10/26 08:36:18;;;;;;;8.55;2.30;;;;;;;19.50;100.00;101349.59;5203394;28;20108;-74
2022/10/26 08:38:49;;;;;;;5.40;2.40;;;;;;;19.86;100.00;101351.81;5202780;28;20025;-74
2022/10/26 08:41:32;;;;;;;8.38;2.53;;;;;;;20.41;100.00;101360.34;5202793;28;20429;-75
2022/10/26 08:44:32;;;;;;;6.45;2.50;;;;;;;20.64;100.00;101357.13;5203505;28;20006;-75
2022/10/26 08:47:19;;;;;;;5.40;2.28;;;;;;;21.36;100.00;101367.66;5202808;28;20029;-74
2022/10/26 08:50:05;;;;;;;12.88;4.38;;;;;;;21.92;100.00;101367.44;5203382;28;20018;-74
2022/10/26 08:52:49;;;;;;;9.93;2.28;;;;;;;21.87;100.00;101367.28;5203329;28;20023;-74
2022/10/26 08:55:25;;;;;;;8.43;2.20;;;;;;;21.53;100.00;101359.72;5203306;28;20480;-75
2022/10/26 08:57:58;;;;;;;8.88;2.58;;;;;;;21.85;100.00;101366.69;5202083;28;20507;-75
2022/10/26 09:00:29;;;;;;;9.43;2.33;;;;;;;22.05;100.00;101369.19;5202510;28;20037;-75
2022/10/26 09:03:00;;;;;;;8.32;2.33;;;;;;;22.21;100.00;101370.47;5203289;28;20029;-74
2022/10/26 09:06:06;;;;;;;7.53;2.05;;;;;;;22.27;100.00;101377.75;5202992;28;20033;-75
2022/10/26 09:08:52;;;;;;;5.78;2.17;;;;;;;22.48;100.00;101390.91;5202650;28;20017;-74
2022/10/26 09:11:51;;;;;;;8.98;2.40;;;;;;;22.36;100.00;101397.41;5202853;28;20053;-74
2022/10/26 09:14:31;;;;;;;12.07;2.58;;;;;;;22.29;100.00;101392.03;5202688;28;20021;-74
2022/10/26 09:17:14;;;;;;;8.60;1.98;;;;;;;22.31;100.00;101398.09;5202856;28;20116;-75
2022/10/26 09:19:44;;;;;;;5.78;1.85;;;;;;;21.83;100.00;101401.59;5203101;28;20024;-75
2022/10/26 09:22:15;;;;;;;3.95;1.92;;;;;;;21.32;100.00;101397.28;5203323;28;20026;-74
2022/10/26 09:24:54;;;;;;;6.60;1.95;;;;;;;20.54;100.00;101394.09;5202972;28;20044;-74
2022/10/26 09:27:25;;;;;;;7.22;2.38;;;;;;;20.57;100.00;101407.25;5203388;28;20736;-75
2022/10/26 09:29:58;;;;;;;5.68;2.10;;;;;;;20.47;100.00;101409.63;5203418;28;20088;-74
2022/10/26 09:32:44;;;;;;;7.78;2.42;;;;;;;20.32;100.00;101404.44;5189046;28;20056;-74
2022/10/26 09:35:22;;;;;;;;;;;;;;;20.68;100.00;101406.56;5201434;28;20025;-74
2022/10/26 09:38:24;;;;;;;8.48;2.03;;;;;;;21.03;100.00;101417.84;5202047;28;19959;-75
2022/10/26 09:41:11;;;;;;;9.75;2.58;;;;;;;20.91;100.00;101419.63;5194025;28;20041;-74
2022/10/26 09:44:03;;;;;;;13.65;2.20;;;;;;;20.52;100.00;101424.25;5202017;28;20037;-75
2022/10/26 09:47:00;;;;;;;7.13;2.05;;;;;;;20.77;100.00;101426.22;5202063;28;20116;-75
2022/10/26 09:49:47;;;;;;;6.68;2.10;;;;;;;20.99;100.00;101438.47;5201360;28;20083;-75
2022/10/26 09:52:17;;;;;;;7.88;1.92;;;;;;;21.14;100.00;101433.53;5201874;28;20026;-74
2022/10/26 09:54:48;;;;;;;6.22;1.92;;;;;;;20.78;100.00;101430.63;5201856;28;20495;-75
2022/10/26 09:57:19;;;;;;;9.90;1.92;;;;;;;20.58;100.00;101431.59;5201418;28;20029;-74
2022/10/26 09:59:51;;;;;;;5.95;1.60;;;;;;;20.81;100.00;101441.09;5201989;28;20025;-75
2022/10/26 10:02:36;;;;;;;6.38;1.60;;;;;;;20.71;100.00;101446.19;5201226;28;20041;-74
2022/10/26 10:05:26;;;;;;;6.60;1.80;;;;;;;20.63;100.00;101445.41;5201954;28;20025;-74
2022/10/26 10:08:12;;;;;;;7.53;1.88;;;;;;;20.65;100.00;101450.63;5201166;28;20086;-74
2022/10/26 10:11:07;;;;;;;8.38;1.98;;;;;;;20.26;100.00;101449.72;5201004;28;20365;-75
2022/10/26 10:13:40;;;;;;;3.88;1.70;;;;;;;20.31;100.00;101459.97;5201930;28;20026;-75
2022/10/26 10:16:23;;;;;;;9.60;3.25;;;;;;;20.34;100.00;101452.22;5201608;28;20481;-75
2022/10/26 10:18:57;;;;;;;6.82;1.80;;;;;;;20.32;100.00;101456.19;5201316;28;20056;-75
2022/10/26 10:21:54;;;;;;;5.05;1.55;;;;;;;20.40;100.00;101462.25;5201677;28;20179;-74
2022/10/26 10:24:30;;;;;;;8.05;2.10;;;;;;;20.59;100.00;101462.41;5196267;28;20053;-74
2022/10/26 10:27:10;;;;;;;7.20;1.88;;;;;;;20.57;100.00;101481.69;5199684;28;20525;-75
2022/10/26 10:29:49;;;;;;;7.50;1.80;;;;;;;20.47;100.00;101484.03;5200780;28;20444;-75
2022/10/26 10:32:30;;;;;;;12.75;2.15;;;;;;;20.52;100.00;101486.13;5197812;28;20120;-74
2022/10/26 10:35:01;;;;;;;8.95;1.90;;;;;;;20.53;100.00;101495.97;5201111;28;20025;-75
2022/10/26 10:37:45;;;;;;;6.97;1.65;;;;;;;20.63;100.00;101493.59;5200349;28;20117;-75
2022/10/26 10:40:19;;;;;;;15.00;2.25;;;;;;;20.87;100.00;101497.47;5200753;28;20021;-75
2022/10/26 10:42:52;;;;;;;9.38;1.60;;;;;;;20.96;100.00;101507.06;5201296;28;20029;-75
2022/10/26 10:45:25;;;;;;;5.28;1.42;;;;;;;21.00;100.00;101504.75;5201125;28;20052;-75
2022/10/26 10:48:11;;;;;;;8.15;1.58;;;;;;;20.92;100.00;101505.84;5200553;28;20029;-75
2022/10/26 10:50:55;;;;;;;3.20;1.42;;;;;;;20.92;100.00;101501.22;5201214;28;20032;-74
2022/10/26 10:53:36;;;;;;;5.20;1.60;;;;;;;21.09;100.00;101511.63;5200958;28;20065;-75
2022/10/26 10:56:28;;;;;;;9.50;1.83;;;;;;;20.98;100.00;101506.84;5201101;28;20087;-75
2022/10/26 10:59:17;;;;;;;12.57;1.70;;;;;;;20.92;100.00;101514.84;5200851;28;20362;-75
2022/10/26 11:01:50;;;;;;;5.35;1.30;;;;;;;21.06;100.00;101512.88;5201465;28;20033;-75
2022/10/26 11:04:38;;;;;;;5.80;1.50;;;;;;;21.09;100.00;101522.53;5200851;28;20033;-75
2022/10/26 11:07:11;;;;;;;6.90;1.10;;;;;;;21.20;100.00;101521.84;5199570;28;20029;-75
2022/10/26 11:09:45;;;;;;;10.40;1.60;;;;;;;21.30;100.00;101529.53;5202126;28;20595;-75
2022/10/26 11:12:28;;;;;;;5.68;1.40;;;;;;;21.11;100.00;101536.78;5202273;28;20051;-75
2022/10/26 11:15:06;;;;;;;4.68;1.65;;;;;;;21.04;100.00;101545.03;5202439;28;20185;-75
2022/10/26 11:17:50;;;;;;;7.72;1.42;;;;;;;21.01;100.00;101548.16;5200420;28;20033;-75
2022/10/26 11:20:25;;;;;;;5.32;1.63;;;;;;;20.81;100.00;101542.81;5201140;28;20156;-75
2022/10/26 11:23:11;;;;;;;7.55;1.65;;;;;;;20.82;100.00;101555.38;5202275;28;20036;-75
2022/10/26 11:26:20;;;;;;;4.82;1.27;;;;;;;20.77;100.00;101555.22;5201614;28;20366;-75
2022/10/26 11:28:57;;;;;;;3.70;1.30;;;;;;;20.73;100.00;101564.88;5170108;28;20317;-75
2022/10/26 11:31:41;;;;;;;4.40;1.10;;;;;;;20.76;100.00;101577.25;5198561;28;20095;-75
2022/10/26 11:34:23;;;;;;;4.93;1.40;;;;;;;20.64;100.00;101568.91;5201613;28;20088;-75
2022/10/26 11:37:07;;;;;;;4.43;1.38;;;;;;;20.74;100.00;101576.63;5201382;28;20117;-75
2022/10/26 11:39:45;;;;;;;3.05;1.40;;;;;;;20.69;100.00;101569.94;5201495;28;20017;-74
2022/10/26 11:42:16;;;;;;;11.30;1.52;;;;;;;20.57;100.00;101570.81;5201754;28;20033;-75
2022/10/26 11:45:09;;;;;;;7.32;1.40;;;;;;;20.43;100.00;101568.09;5201779;28;20213;-75
2022/10/26 11:47:46;;;;;;;5.38;1.35;;;;;;;20.51;100.00;101568.94;5199945;28;20376;-75
2022/10/26 11:50:32;;;;;;;6.35;1.60;;;;;;;20.52;100.00;101570.63;5202597;28;20419;-75
2022/10/26 11:53:15;;;;;;;10.50;1.48;;;;;;;20.54;100.00;101573.97;5205294;28;20052;-75
2022/10/26 11:55:53;;;;;;;4.72;1.60;;;;;;;20.60;100.00;101575.84;5205657;28;20077;-75